createdAt,value
2023-02-19T00:00:38.238Z,45.40
2023-02-19T00:03:40.600Z,42.10
2023-02-19T00:06:42.577Z,37.30
2023-02-19T00:09:44.163Z,42.10
2023-02-19T00:12:45.779Z,41.60
2023-02-19T00:15:47.505Z,39.40
2023-02-19T00:18:49.278Z,41.70
2023-02-19T00:21:52.541Z,43.80
2023-02-19T00:24:54.048Z,42.90
2023-02-19T00:27:55.668Z,40.00
2023-02-19T00:31:05.246Z,40.60
2023-02-19T00:34:06.887Z,45.10
2023-02-19T00:37:08.451Z,40.70
2023-02-19T00:40:10.321Z,38.80
2023-02-19T00:43:11.880Z,41.10
2023-02-19T00:46:13.559Z,41.10
2023-02-19T00:49:17.897Z,40.20
2023-02-19T00:52:19.694Z,40.80
2023-02-19T00:55:24.400Z,40.80
2023-02-19T00:58:26.006Z,44.40
2023-02-19T01:01:27.725Z,43.50
2023-02-19T01:04:29.407Z,45.00
2023-02-19T01:07:31.250Z,41.40
2023-02-19T01:10:33.046Z,43.10
2023-02-19T01:13:35.548Z,43.10
2023-02-19T01:16:37.224Z,43.90
2023-02-19T01:19:38.973Z,49.30
2023-02-19T01:22:40.490Z,43.70
2023-02-19T01:25:42.627Z,44.00
2023-02-19T01:28:44.836Z,42.30
2023-02-19T01:31:46.519Z,46.10
2023-02-19T01:34:48.286Z,43.30
2023-02-19T01:37:49.817Z,44.30
2023-02-19T01:41:00.209Z,48.20
2023-02-19T01:47:06.832Z,44.40
2023-02-19T01:50:08.557Z,44.90
2023-02-19T01:53:12.250Z,41.80
2023-02-19T01:56:16.022Z,46.90
2023-02-19T01:59:18.469Z,41.30
2023-02-19T02:02:20.131Z,43.10
2023-02-19T02:05:34.132Z,42.90
2023-02-19T02:08:54.448Z,44.30
2023-02-19T02:11:56.148Z,41.90
2023-02-19T02:14:57.729Z,38.60
2023-02-19T02:18:14.281Z,42.90
2023-02-19T02:21:25.160Z,41.00
2023-02-19T02:24:47.040Z,43.40
2023-02-19T02:27:59.243Z,42.50
2023-02-19T02:31:15.155Z,44.40
2023-02-19T02:34:30.789Z,41.60
2023-02-19T02:37:35.650Z,43.70
2023-02-19T02:40:40.042Z,45.90
2023-02-19T02:43:42.003Z,43.60
2023-02-19T02:46:45.353Z,43.20
2023-02-19T02:50:05.196Z,44.20
2023-02-19T02:53:36.662Z,43.60
2023-02-19T02:56:40.273Z,41.30
2023-02-19T02:59:42.843Z,43.00
2023-02-19T03:02:44.568Z,43.30
2023-02-19T03:05:52.243Z,42.10
2023-02-19T03:09:12.311Z,44.70
2023-02-19T03:12:34.146Z,43.00
2023-02-19T03:16:20.550Z,41.90
2023-02-19T03:19:23.157Z,43.90
2023-02-19T03:22:31.885Z,40.20
2023-02-19T03:25:54.850Z,42.90
2023-02-19T03:29:23.218Z,44.50
2023-02-19T03:32:33.283Z,44.30
2023-02-19T03:36:06.562Z,41.80
2023-02-19T03:39:11.806Z,42.70
2023-02-19T03:42:37.473Z,42.80
2023-02-19T03:45:49.498Z,40.70
2023-02-19T03:48:57.246Z,46.70
2023-02-19T03:52:11.153Z,44.80
2023-02-19T03:55:52.454Z,41.20
2023-02-19T03:59:09.087Z,41.70
2023-02-19T04:02:18.396Z,42.60
2023-02-19T04:05:23.287Z,45.00
2023-02-19T04:08:25.731Z,42.40
2023-02-19T04:11:33.245Z,41.40
2023-02-19T04:14:43.307Z,43.70
2023-02-19T04:17:50.581Z,47.00
2023-02-19T04:20:52.507Z,44.40
2023-02-19T04:23:54.118Z,45.70
2023-02-19T04:26:56.100Z,43.40
2023-02-19T04:29:57.728Z,45.50
2023-02-19T04:32:59.254Z,45.00
2023-02-19T04:36:00.948Z,42.70
2023-02-19T04:39:02.632Z,41.70
2023-02-19T04:42:04.572Z,42.80
2023-02-19T04:45:06.501Z,42.50
2023-02-19T04:48:09.013Z,42.20
2023-02-19T04:51:11.486Z,44.50
2023-02-19T04:54:13.191Z,45.90
2023-02-19T04:57:14.919Z,46.60
2023-02-19T05:00:16.728Z,46.20
2023-02-19T05:03:18.294Z,49.40
2023-02-19T05:06:20.058Z,46.20
2023-02-19T05:09:21.637Z,45.40
2023-02-19T05:12:23.252Z,46.00
2023-02-19T05:15:24.819Z,49.10
2023-02-19T05:18:26.636Z,46.40
2023-02-19T05:21:28.276Z,43.80
2023-02-19T05:24:31.594Z,46.30
2023-02-19T05:27:33.166Z,47.70
2023-02-19T05:30:35.510Z,46.90
2023-02-19T05:33:38.080Z,45.00
2023-02-19T05:36:39.659Z,45.60
2023-02-19T05:39:41.161Z,45.10
2023-02-19T05:42:42.705Z,45.60
2023-02-19T05:45:44.370Z,45.40
2023-02-19T05:48:47.083Z,44.10
2023-02-19T05:51:51.167Z,45.70
2023-02-19T05:54:52.777Z,47.30
2023-02-19T05:57:54.420Z,48.30
2023-02-19T06:00:56.264Z,45.20
2023-02-19T06:03:58.342Z,40.70
2023-02-19T06:06:59.983Z,43.20
2023-02-19T06:10:01.974Z,42.20
2023-02-19T06:13:03.570Z,46.60
2023-02-19T06:16:06.709Z,43.00
2023-02-19T06:19:08.362Z,42.70
2023-02-19T06:22:10.183Z,43.50
2023-02-19T06:25:12.860Z,40.50
2023-02-19T06:28:14.401Z,45.40
2023-02-19T06:31:16.762Z,43.40
2023-02-19T06:34:18.466Z,44.40
2023-02-19T06:37:19.994Z,46.50
2023-02-19T06:40:21.567Z,45.50
2023-02-19T06:43:23.152Z,47.70
2023-02-19T06:46:24.715Z,44.30
2023-02-19T06:49:26.542Z,42.70
2023-02-19T06:52:28.156Z,43.60
2023-02-19T06:55:29.748Z,42.90
2023-02-19T06:58:32.070Z,46.50
2023-02-19T07:01:34.907Z,49.70
2023-02-19T07:04:36.542Z,46.00
2023-02-19T07:07:38.117Z,44.80
2023-02-19T07:10:39.725Z,44.40
2023-02-19T07:13:41.288Z,47.00
2023-02-19T07:16:43.955Z,48.20
2023-02-19T07:19:45.542Z,48.50
2023-02-19T07:22:47.105Z,49.40
2023-02-19T07:25:48.669Z,48.50
2023-02-19T07:28:51.233Z,51.20
2023-02-19T07:31:52.924Z,53.60
2023-02-19T07:34:54.536Z,48.90
2023-02-19T07:37:56.113Z,50.90
2023-02-19T07:41:00.314Z,51.10
2023-02-19T07:44:01.883Z,50.60
2023-02-19T07:47:03.456Z,51.10
2023-02-19T07:50:05.264Z,51.00
2023-02-19T07:53:06.806Z,49.90
2023-02-19T07:56:08.648Z,52.00
2023-02-19T07:59:10.735Z,51.50
2023-02-19T08:02:35.540Z,50.80
2023-02-19T08:05:38.331Z,52.90
2023-02-19T08:08:40.287Z,52.20
2023-02-19T08:12:00.483Z,55.60
2023-02-19T08:15:02.056Z,53.50
2023-02-19T08:18:03.715Z,51.60
2023-02-19T08:21:05.471Z,53.40
2023-02-19T08:24:07.264Z,51.60
2023-02-19T08:27:08.868Z,51.20
2023-02-19T08:30:11.016Z,51.10
2023-02-19T08:33:18.003Z,55.20
2023-02-19T08:36:19.611Z,51.50
2023-02-19T08:39:21.371Z,51.90
2023-02-19T08:42:22.974Z,53.00
2023-02-19T08:45:24.590Z,52.90
2023-02-19T08:48:26.356Z,50.10
2023-02-19T08:51:27.976Z,48.40
2023-02-19T08:54:30.290Z,50.80
2023-02-19T08:57:32.170Z,49.50
2023-02-19T09:00:33.804Z,46.50
2023-02-19T09:03:35.408Z,46.30
2023-02-19T09:06:38.541Z,47.90
2023-02-19T09:09:41.663Z,45.60
2023-02-19T09:12:43.207Z,40.60
2023-02-19T09:15:44.723Z,41.90
2023-02-19T09:18:46.292Z,43.70
2023-02-19T09:21:47.843Z,43.40
2023-02-19T09:24:49.449Z,44.70
2023-02-19T09:27:54.792Z,41.00
2023-02-19T09:30:56.333Z,40.80
2023-02-19T09:33:57.943Z,39.20
2023-02-19T09:36:59.497Z,41.60
2023-02-19T09:40:01.101Z,40.30
2023-02-19T09:43:06.613Z,39.10
2023-02-19T09:46:22.569Z,38.30
2023-02-19T09:49:29.732Z,37.50
2023-02-19T09:52:39.040Z,39.90
2023-02-19T09:55:42.694Z,39.20
2023-02-19T09:58:48.822Z,42.00
2023-02-19T10:01:59.775Z,40.00
2023-02-19T10:05:03.464Z,37.90
2023-02-19T10:08:09.671Z,41.30
2023-02-19T10:11:12.662Z,42.90
2023-02-19T10:14:17.760Z,41.50
2023-02-19T10:17:39.551Z,42.70
2023-02-19T10:20:41.121Z,42.40
2023-02-19T10:23:43.392Z,43.60
2023-02-19T10:26:44.989Z,45.50
2023-02-19T10:29:48.662Z,49.40
2023-02-19T10:33:08.754Z,49.50
2023-02-19T10:36:21.079Z,46.40
2023-02-19T10:39:22.699Z,44.90
2023-02-19T10:42:25.558Z,44.30
2023-02-19T10:45:35.300Z,45.80
2023-02-19T10:48:38.763Z,44.80
2023-02-19T10:51:41.127Z,44.70
2023-02-19T10:54:44.646Z,41.00
2023-02-19T10:57:46.978Z,43.90
2023-02-19T11:00:48.707Z,37.40
2023-02-19T11:03:52.171Z,44.40
2023-02-19T11:06:53.927Z,39.70
2023-02-19T11:09:56.732Z,41.40
2023-02-19T11:13:01.012Z,43.10
2023-02-19T11:16:02.681Z,43.40
2023-02-19T11:19:04.293Z,41.90
2023-02-19T11:22:38.310Z,43.60
2023-02-19T11:25:46.027Z,44.10
2023-02-19T11:28:59.445Z,42.20
2023-02-19T11:32:24.164Z,41.80
2023-02-19T11:35:25.908Z,45.70
2023-02-19T11:38:27.590Z,44.70
2023-02-19T11:42:04.754Z,43.30
2023-02-19T11:45:27.908Z,43.30
2023-02-19T11:52:26.103Z,37.40
2023-02-19T11:55:42.490Z,42.10
2023-02-19T11:59:02.598Z,39.90
2023-02-19T12:02:34.084Z,40.90
2023-02-19T12:05:49.719Z,39.10
2023-02-19T12:09:17.112Z,39.70
2023-02-19T12:12:40.712Z,39.70
2023-02-19T12:19:27.100Z,35.90
2023-02-19T12:22:30.762Z,41.80
2023-02-19T12:25:43.438Z,38.70
2023-02-19T12:29:11.410Z,39.70
2023-02-19T12:32:15.114Z,41.00
2023-02-19T12:35:45.466Z,39.60
2023-02-19T12:39:05.245Z,37.80
2023-02-19T12:42:15.936Z,38.90
2023-02-19T12:45:37.935Z,42.00
2023-02-19T12:48:39.422Z,45.60
2023-02-19T12:51:47.591Z,40.40
2023-02-19T12:54:53.611Z,43.00
2023-02-19T12:57:58.644Z,43.90
2023-02-19T13:04:37.489Z,36.30
2023-02-19T13:08:14.578Z,37.00
2023-02-19T13:11:28.366Z,41.50
2023-02-19T13:14:46.136Z,44.60
2023-02-19T13:17:52.354Z,40.50
2023-02-19T13:20:55.747Z,39.80
2023-02-19T13:24:00.574Z,43.10
2023-02-19T13:27:12.807Z,43.10
2023-02-19T13:30:36.280Z,42.70
2023-02-19T13:33:53.023Z,37.90
2023-02-19T13:36:55.425Z,46.50
2023-02-19T13:39:57.431Z,44.10
2023-02-19T13:43:01.322Z,45.00
2023-02-19T13:46:06.824Z,40.10
2023-02-19T13:49:27.582Z,40.60
2023-02-19T13:52:29.138Z,42.70
2023-02-19T13:55:49.880Z,42.90
2023-02-19T13:59:23.609Z,42.10
2023-02-19T14:02:29.266Z,41.60
2023-02-19T14:06:01.047Z,42.80
2023-02-19T14:09:02.836Z,45.30
2023-02-19T14:12:18.388Z,44.50
2023-02-19T14:15:43.720Z,38.60
2023-02-19T14:18:46.613Z,44.20
2023-02-19T14:21:48.246Z,45.40
2023-02-19T14:24:49.866Z,46.40
2023-02-19T14:27:52.618Z,43.80
2023-02-19T14:31:07.894Z,41.00
2023-02-19T14:34:26.366Z,43.90
2023-02-19T14:37:27.920Z,42.80
2023-02-19T14:40:41.697Z,44.10
2023-02-19T14:43:44.781Z,43.00
2023-02-19T14:46:52.587Z,45.30
2023-02-19T14:49:58.748Z,48.40
2023-02-19T14:53:04.338Z,49.20
2023-02-19T14:56:07.643Z,47.50
2023-02-19T14:59:12.194Z,45.20
2023-02-19T15:02:17.266Z,45.10
2023-02-19T15:05:23.985Z,47.60
2023-02-19T15:08:31.932Z,48.10
2023-02-19T15:11:34.537Z,49.40
2023-02-19T15:14:36.263Z,47.50
2023-02-19T15:17:40.632Z,49.70
2023-02-19T15:20:42.685Z,48.60
2023-02-19T15:23:44.333Z,51.80
2023-02-19T15:26:51.136Z,49.80
2023-02-19T15:29:53.903Z,54.00
2023-02-19T15:32:57.473Z,50.00
2023-02-19T15:36:05.539Z,54.40
2023-02-19T15:39:07.150Z,50.20
2023-02-19T15:42:11.152Z,49.00
2023-02-19T15:48:40.293Z,43.80
2023-02-19T15:51:47.368Z,42.80
2023-02-19T15:54:57.146Z,43.10
2023-02-19T15:58:22.226Z,39.40
2023-02-19T16:01:26.664Z,40.60
2023-02-19T16:04:28.348Z,40.40
2023-02-19T16:07:34.388Z,39.90
2023-02-19T16:10:36.282Z,36.90
2023-02-19T16:13:37.890Z,38.60
2023-02-19T16:16:40.935Z,35.90
2023-02-19T16:19:43.829Z,37.40
2023-02-19T16:22:45.733Z,37.10
2023-02-19T16:25:47.870Z,40.20
2023-02-19T16:28:53.407Z,44.00
2023-02-19T16:32:00.422Z,41.80
2023-02-19T16:35:02.076Z,45.90
2023-02-19T16:38:03.679Z,47.50
2023-02-19T16:41:11.627Z,46.00
2023-02-19T16:44:25.820Z,47.30
2023-02-19T16:47:29.704Z,44.20
2023-02-19T16:50:31.269Z,45.80
2023-02-19T16:53:33.443Z,46.70
2023-02-19T16:56:35.045Z,44.30
2023-02-19T16:59:36.970Z,45.30
2023-02-19T17:02:38.595Z,48.90
2023-02-19T17:05:40.394Z,47.20
2023-02-19T17:08:43.860Z,44.70
2023-02-19T17:11:45.476Z,47.60
2023-02-19T17:14:47.063Z,42.80
2023-02-19T17:17:49.053Z,43.60
2023-02-19T17:20:55.199Z,45.10
2023-02-19T17:23:57.107Z,43.20
2023-02-19T17:26:58.670Z,40.80
2023-02-19T17:30:00.307Z,41.90
2023-02-19T17:33:02.214Z,38.20
2023-02-19T17:36:04.199Z,38.70
2023-02-19T17:39:11.997Z,38.20
2023-02-19T17:42:13.581Z,36.20
2023-02-19T17:45:25.344Z,36.90
2023-02-19T17:48:26.955Z,37.20
2023-02-19T17:51:28.511Z,39.90
2023-02-19T17:54:30.154Z,43.10
2023-02-19T17:57:33.815Z,40.70
2023-02-19T18:00:36.617Z,38.20
2023-02-19T18:03:38.661Z,42.00
2023-02-19T18:06:40.260Z,37.00
2023-02-19T18:09:41.890Z,39.20
2023-02-19T18:12:43.897Z,37.50
2023-02-19T18:15:45.458Z,39.20
2023-02-19T18:18:47.023Z,41.10
2023-02-19T18:21:48.783Z,43.20
2023-02-19T18:24:54.108Z,41.40
2023-02-19T18:27:55.718Z,44.00
2023-02-19T18:30:57.377Z,45.20
2023-02-19T18:33:59.151Z,44.10
2023-02-19T18:37:00.850Z,41.70
2023-02-19T18:40:03.925Z,45.50
2023-02-19T18:43:05.502Z,45.10
2023-02-19T18:46:08.875Z,51.40
2023-02-19T18:49:10.486Z,48.40
2023-02-19T18:52:12.414Z,52.50
2023-02-19T18:55:14.041Z,46.50
2023-02-19T18:58:15.739Z,44.30
2023-02-19T19:01:17.345Z,44.80
2023-02-19T19:04:19.068Z,44.60
2023-02-19T19:07:21.199Z,44.00
2023-02-19T19:10:23.193Z,41.90
2023-02-19T19:13:25.543Z,37.80
2023-02-19T19:16:28.572Z,38.00
2023-02-19T19:19:30.221Z,38.80
2023-02-19T19:22:31.802Z,39.60
2023-02-19T19:25:33.319Z,40.60
2023-02-19T19:28:34.849Z,40.40
2023-02-19T19:31:37.013Z,46.40
2023-02-19T19:34:38.572Z,45.50
2023-02-19T19:37:40.132Z,41.60
2023-02-19T19:40:42.431Z,40.40
2023-02-19T19:43:44.098Z,42.50
2023-02-19T19:46:45.923Z,41.60
2023-02-19T19:49:47.519Z,41.50
2023-02-19T19:52:49.045Z,43.20
2023-02-19T19:55:50.661Z,42.10
2023-02-19T19:58:52.247Z,41.90
2023-02-19T20:01:57.126Z,42.90
2023-02-19T20:04:58.799Z,42.90
2023-02-19T20:08:00.428Z,43.90
2023-02-19T20:11:03.187Z,40.70
2023-02-19T20:14:05.347Z,40.40
2023-02-19T20:17:09.509Z,44.40
2023-02-19T20:20:11.618Z,40.60
2023-02-19T20:23:13.227Z,42.40
2023-02-19T20:26:24.518Z,40.10
2023-02-19T20:29:28.743Z,39.30
2023-02-19T20:32:30.342Z,42.10
2023-02-19T20:35:32.478Z,43.20
2023-02-19T20:38:34.202Z,43.00
2023-02-19T20:41:35.800Z,43.10
2023-02-19T20:44:37.388Z,43.40
2023-02-19T20:47:39.865Z,45.70
2023-02-19T20:50:41.460Z,44.40
2023-02-19T20:53:43.338Z,45.70
2023-02-19T20:56:45.852Z,43.80
2023-02-19T20:59:47.472Z,44.30
2023-02-19T21:02:49.104Z,41.70
2023-02-19T21:05:50.741Z,40.80
2023-02-19T21:08:52.301Z,41.80
2023-02-19T21:11:53.875Z,40.90
2023-02-19T21:14:55.545Z,42.70
2023-02-19T21:17:57.070Z,43.00
2023-02-19T21:20:58.819Z,43.80
2023-02-19T21:24:00.515Z,42.40
2023-02-19T21:27:02.115Z,45.40
2023-02-19T21:30:05.042Z,42.20
2023-02-19T21:33:06.685Z,43.20
2023-02-19T21:36:09.060Z,48.50
2023-02-19T21:39:13.103Z,41.60
2023-02-19T21:42:14.768Z,43.30
2023-02-19T21:45:16.427Z,43.50
2023-02-19T21:48:18.116Z,42.60
2023-02-19T21:51:20.763Z,42.70
2023-02-19T21:54:27.064Z,44.30
2023-02-19T21:57:28.759Z,44.50
2023-02-19T22:00:31.397Z,47.30
2023-02-19T22:03:32.957Z,43.10
2023-02-19T22:06:34.635Z,46.80
2023-02-19T22:09:36.173Z,45.90
2023-02-19T22:12:37.733Z,44.30
2023-02-19T22:15:39.274Z,43.60
2023-02-19T22:18:50.895Z,43.20
2023-02-19T22:21:52.501Z,43.10
2023-02-19T22:24:54.066Z,43.00
2023-02-19T22:27:55.716Z,44.20
2023-02-19T22:30:57.234Z,43.10
2023-02-19T22:33:58.828Z,44.30
2023-02-19T22:37:00.412Z,42.60
2023-02-19T22:40:02.015Z,43.90
2023-02-19T22:43:03.548Z,46.90
2023-02-19T22:46:10.316Z,44.30
2023-02-19T22:49:11.980Z,44.70
2023-02-19T22:52:13.793Z,44.50
2023-02-19T22:55:16.611Z,45.80
2023-02-19T22:58:18.128Z,48.60
2023-02-19T23:01:20.495Z,45.60
2023-02-19T23:04:24.895Z,44.60
2023-02-19T23:07:26.507Z,45.10
2023-02-19T23:10:28.425Z,45.10
2023-02-19T23:13:29.956Z,44.50
2023-02-19T23:16:35.896Z,47.20
2023-02-19T23:19:38.021Z,46.60
2023-02-19T23:22:40.070Z,48.70
2023-02-19T23:25:41.664Z,44.40
2023-02-19T23:28:44.130Z,43.90
2023-02-19T23:31:46.277Z,42.90
2023-02-19T23:34:48.355Z,44.40
2023-02-19T23:37:49.933Z,43.70
2023-02-19T23:40:51.521Z,43.60
2023-02-19T23:43:53.394Z,43.30
2023-02-19T23:46:55.092Z,42.70
2023-02-19T23:49:56.630Z,43.30
2023-02-19T23:52:59.287Z,43.50
2023-02-19T23:56:00.925Z,42.70
2023-02-19T23:59:02.566Z,43.90
